TimePDT,TemperatureF,Dew PointF,Humidity,Sea Level PressureIn,VisibilityMPH,Wind Direction,Wind SpeedMPH,Gust SpeedMPH,PrecipitationIn,Events,Conditions,WindDirDegrees,DateUTC
1:53 AM,44.1,37.0,76,29.99,10.0,Calm,Calm,-,N/A,,Overcast,0,2012-10-09 08:53:00
2:53 AM,39.9,36.0,86,29.99,10.0,Calm,Calm,-,N/A,,Clear,0,2012-10-09 09:53:00
3:53 AM,37.9,34.0,86,30.00,10.0,Calm,Calm,-,N/A,,Clear,0,2012-10-09 10:53:00
4:53 AM,37.0,34.0,89,30.00,10.0,East,3.5,-,N/A,,Partly Cloudy,100,2012-10-09 11:53:00
5:53 AM,37.0,34.0,89,30.01,10.0,ESE,3.5,-,N/A,,Clear,110,2012-10-09 12:53:00
6:00 AM,35.6,33.8,93,30.06,10.0,Calm,Calm,-,N/A,,Scattered Clouds,0,2012-10-09 13:00:00
6:53 AM,34.0,32.0,92,30.04,10.0,Calm,Calm,-,N/A,,Scattered Clouds,0,2012-10-09 13:53:00
7:53 AM,37.0,32.0,82,30.04,10.0,Calm,Calm,-,N/A,,Scattered Clouds,0,2012-10-09 14:53:00
8:53 AM,48.9,37.9,66,30.03,10.0,NNW,5.8,-,N/A,,Scattered Clouds,340,2012-10-09 15:53:00
9:53 AM,53.1,37.0,55,30.04,10.0,Calm,Calm,-,N/A,,Clear,0,2012-10-09 16:53:00
10:53 AM,57.0,34.0,42,30.02,10.0,Calm,Calm,-,N/A,,Clear,0,2012-10-09 17:53:00
11:53 AM,60.1,30.9,33,30.01,10.0,Variable,3.5,-,N/A,,Partly Cloudy,0,2012-10-09 18:53:00
12:53 PM,63.0,30.0,29,29.98,10.0,NNW,5.8,-,N/A,,Partly Cloudy,330,2012-10-09 19:53:00
1:53 PM,66.9,26.1,21,29.95,10.0,NNE,4.6,-,N/A,,Partly Cloudy,30,2012-10-09 20:53:00
2:53 PM,69.1,26.1,20,29.94,10.0,Calm,Calm,-,N/A,,Scattered Clouds,0,2012-10-09 21:53:00
3:28 PM,68.0,24.8,20,30.00,10.0,Variable,3.5,-,N/A,,Scattered Clouds,0,2012-10-09 22:28:00
3:53 PM,69.1,27.0,21,29.94,10.0,SW,6.9,-,N/A,,Scattered Clouds,220,2012-10-09 22:53:00
4:53 PM,68.0,28.0,22,29.93,10.0,SSW,5.8,-,N/A,,Scattered Clouds,200,2012-10-09 23:53:00
5:53 PM,64.9,30.9,28,29.94,10.0,SW,4.6,-,N/A,,Scattered Clouds,230,2012-10-10 00:53:00
6:53 PM,55.9,33.1,42,29.96,10.0,NNE,3.5,-,N/A,,Scattered Clouds,30,2012-10-10 01:53:00
7:53 PM,51.1,35.1,54,29.98,10.0,Calm,Calm,-,N/A,,Scattered Clouds,0,2012-10-10 02:53:00
8:53 PM,51.1,34.0,52,29.96,7.0,SW,4.6,-,N/A,,Scattered Clouds,220,2012-10-10 03:53:00
9:53 PM,55.0,39.0,55,29.95,7.0,NW,8.1,-,N/A,,Scattered Clouds,320,2012-10-10 04:53:00
10:53 PM,42.1,34.0,73,29.98,10.0,NNE,4.6,-,N/A,,Clear,30,2012-10-10 05:53:00
11:53 PM,41.0,33.1,73,29.98,10.0,Calm,Calm,-,N/A,,Clear,0,2012-10-10 06:53:00